sensor_id;sensor_type;location;lat;lon;timestamp;P1;durP1;ratioP1;P2;durP2;ratioP2
10403;SDS011;5248;47.374;8.486;2022-11-15T00:02:14;3.40;;;1.90;;
10403;SDS011;5248;47.374;8.486;2022-11-15T00:04:41;3.07;;;2.23;;
10403;SDS011;5248;47.374;8.486;2022-11-15T00:07:10;2.50;;;2.40;;
10403;SDS011;5248;47.374;8.486;2022-11-15T00:09:37;4.17;;;2.50;;
10403;SDS011;5248;47.374;8.486;2022-11-15T00:12:05;3.50;;;2.57;;
10403;SDS011;5248;47.374;8.486;2022-11-15T00:14:33;2.73;;;2.53;;
10403;SDS011;5248;47.374;8.486;2022-11-15T00:17:01;3.50;;;2.70;;
10403;SDS011;5248;47.374;8.486;2022-11-15T00:19:30;2.60;;;2.40;;
10403;SDS011;5248;47.374;8.486;2022-11-15T00:21:57;2.60;;;2.40;;
10403;SDS011;5248;47.374;8.486;2022-11-15T00:24:25;2.97;;;2.43;;
10403;SDS011;5248;47.374;8.486;2022-11-15T00:26:52;2.33;;;2.23;;
10403;SDS011;5248;47.374;8.486;2022-11-15T00:29:20;5.20;;;2.57;;
10403;SDS011;5248;47.374;8.486;2022-11-15T00:31:47;4.23;;;2.63;;
10403;SDS011;5248;47.374;8.486;2022-11-15T00:34:13;2.70;;;2.50;;
10403;SDS011;5248;47.374;8.486;2022-11-15T00:36:45;3.13;;;2.53;;
10403;SDS011;5248;47.374;8.486;2022-11-15T00:39:12;2.80;;;2.60;;
10403;SDS011;5248;47.374;8.486;2022-11-15T00:41:40;3.10;;;2.80;;
10403;SDS011;5248;47.374;8.486;2022-11-15T00:44:06;4.50;;;3.00;;
10403;SDS011;5248;47.374;8.486;2022-11-15T00:46:33;4.07;;;2.60;;
10403;SDS011;5248;47.374;8.486;2022-11-15T00:49:00;2.10;;;2.00;;
10403;SDS011;5248;47.374;8.486;2022-11-15T00:51:27;4.07;;;2.20;;
10403;SDS011;5248;47.374;8.486;2022-11-15T00:53:56;1.80;;;1.70;;
10403;SDS011;5248;47.374;8.486;2022-11-15T00:56:23;2.60;;;2.00;;
10403;SDS011;5248;47.374;8.486;2022-11-15T00:58:51;2.17;;;1.97;;
10403;SDS011;5248;47.374;8.486;2022-11-15T01:01:18;2.00;;;1.90;;
10403;SDS011;5248;47.374;8.486;2022-11-15T01:03:47;3.33;;;1.70;;
10403;SDS011;5248;47.374;8.486;2022-11-15T01:06:15;2.53;;;2.27;;
10403;SDS011;5248;47.374;8.486;2022-11-15T01:08:45;5.47;;;2.30;;
10403;SDS011;5248;47.374;8.486;2022-11-15T01:11:12;3.03;;;2.30;;
10403;SDS011;5248;47.374;8.486;2022-11-15T01:13:40;2.80;;;2.60;;
10403;SDS011;5248;47.374;8.486;2022-11-15T01:16:10;3.80;;;3.47;;
10403;SDS011;5248;47.374;8.486;2022-11-15T01:18:38;3.87;;;3.57;;
10403;SDS011;5248;47.374;8.486;2022-11-15T01:21:06;4.80;;;4.00;;
10403;SDS011;5248;47.374;8.486;2022-11-15T01:23:34;5.10;;;3.50;;
10403;SDS011;5248;47.374;8.486;2022-11-15T01:26:00;3.87;;;3.50;;
10403;SDS011;5248;47.374;8.486;2022-11-15T01:28:29;4.07;;;3.67;;
10403;SDS011;5248;47.374;8.486;2022-11-15T01:30:57;6.97;;;3.53;;
10403;SDS011;5248;47.374;8.486;2022-11-15T01:33:26;3.40;;;3.20;;
10403;SDS011;5248;47.374;8.486;2022-11-15T01:35:54;4.23;;;3.23;;
10403;SDS011;5248;47.374;8.486;2022-11-15T01:38:22;5.13;;;3.33;;
10403;SDS011;5248;47.374;8.486;2022-11-15T01:40:49;3.87;;;3.50;;
10403;SDS011;5248;47.374;8.486;2022-11-15T01:43:21;3.97;;;3.20;;
10403;SDS011;5248;47.374;8.486;2022-11-15T01:45:50;2.77;;;2.57;;
10403;SDS011;5248;47.374;8.486;2022-11-15T01:48:19;2.87;;;2.60;;
10403;SDS011;5248;47.374;8.486;2022-11-15T01:50:48;2.77;;;2.57;;
10403;SDS011;5248;47.374;8.486;2022-11-15T01:53:22;2.17;;;1.90;;
10403;SDS011;5248;47.374;8.486;2022-11-15T01:55:50;2.57;;;2.17;;
10403;SDS011;5248;47.374;8.486;2022-11-15T01:58:18;2.17;;;2.07;;
10403;SDS011;5248;47.374;8.486;2022-11-15T02:00:45;2.10;;;2.00;;
10403;SDS011;5248;47.374;8.486;2022-11-15T02:03:13;3.97;;;2.27;;
10403;SDS011;5248;47.374;8.486;2022-11-15T02:05:40;4.37;;;2.17;;
10403;SDS011;5248;47.374;8.486;2022-11-15T02:08:09;3.20;;;2.20;;
10403;SDS011;5248;47.374;8.486;2022-11-15T02:10:44;3.13;;;2.80;;
10403;SDS011;5248;47.374;8.486;2022-11-15T02:13:11;3.80;;;2.17;;
10403;SDS011;5248;47.374;8.486;2022-11-15T02:15:40;2.90;;;2.20;;
10403;SDS011;5248;47.374;8.486;2022-11-15T02:18:17;3.37;;;2.33;;
10403;SDS011;5248;47.374;8.486;2022-11-15T02:20:55;2.77;;;2.50;;
10403;SDS011;5248;47.374;8.486;2022-11-15T02:23:48;3.73;;;2.33;;
10403;SDS011;5248;47.374;8.486;2022-11-15T02:26:41;3.13;;;2.93;;
10403;SDS011;5248;47.374;8.486;2022-11-15T02:29:36;2.97;;;2.77;;
10403;SDS011;5248;47.374;8.486;2022-11-15T02:32:18;3.77;;;3.47;;
10403;SDS011;5248;47.374;8.486;2022-11-15T02:34:48;4.53;;;3.10;;
10403;SDS011;5248;47.374;8.486;2022-11-15T02:37:20;3.50;;;2.70;;
10403;SDS011;5248;47.374;8.486;2022-11-15T02:39:51;4.57;;;3.03;;
10403;SDS011;5248;47.374;8.486;2022-11-15T02:42:25;3.47;;;3.23;;
10403;SDS011;5248;47.374;8.486;2022-11-15T02:45:11;3.53;;;3.23;;
10403;SDS011;5248;47.374;8.486;2022-11-15T02:47:46;3.53;;;3.23;;
10403;SDS011;5248;47.374;8.486;2022-11-15T02:50:16;3.40;;;3.10;;
10403;SDS011;5248;47.374;8.486;2022-11-15T02:52:44;4.03;;;3.37;;
10403;SDS011;5248;47.374;8.486;2022-11-15T02:55:28;3.50;;;3.20;;
10403;SDS011;5248;47.374;8.486;2022-11-15T02:57:58;3.70;;;3.33;;
10403;SDS011;5248;47.374;8.486;2022-11-15T03:00:47;3.87;;;3.43;;
10403;SDS011;5248;47.374;8.486;2022-11-15T03:03:23;3.33;;;3.13;;
10403;SDS011;5248;47.374;8.486;2022-11-15T03:06:00;3.73;;;3.10;;
10403;SDS011;5248;47.374;8.486;2022-11-15T03:08:35;4.47;;;3.43;;
10403;SDS011;5248;47.374;8.486;2022-11-15T03:11:07;3.37;;;3.17;;
10403;SDS011;5248;47.374;8.486;2022-11-15T03:13:36;3.10;;;2.90;;
10403;SDS011;5248;47.374;8.486;2022-11-15T03:16:08;3.53;;;3.20;;
10403;SDS011;5248;47.374;8.486;2022-11-15T03:18:40;3.43;;;3.13;;
10403;SDS011;5248;47.374;8.486;2022-11-15T03:21:11;3.50;;;3.20;;
10403;SDS011;5248;47.374;8.486;2022-11-15T03:23:39;3.47;;;3.03;;
10403;SDS011;5248;47.374;8.486;2022-11-15T03:26:07;3.30;;;3.10;;
10403;SDS011;5248;47.374;8.486;2022-11-15T03:28:36;2.93;;;2.80;;
10403;SDS011;5248;47.374;8.486;2022-11-15T03:31:04;3.40;;;3.10;;
10403;SDS011;5248;47.374;8.486;2022-11-15T03:33:54;6.43;;;3.30;;
10403;SDS011;5248;47.374;8.486;2022-11-15T03:36:22;4.23;;;2.70;;
10403;SDS011;5248;47.374;8.486;2022-11-15T03:38:51;5.13;;;3.20;;
10403;SDS011;5248;47.374;8.486;2022-11-15T03:41:21;3.57;;;3.27;;
10403;SDS011;5248;47.374;8.486;2022-11-15T03:43:52;3.10;;;2.80;;
10403;SDS011;5248;47.374;8.486;2022-11-15T03:46:24;3.27;;;2.97;;
10403;SDS011;5248;47.374;8.486;2022-11-15T03:48:54;3.17;;;2.83;;
10403;SDS011;5248;47.374;8.486;2022-11-15T03:51:24;3.10;;;2.80;;
10403;SDS011;5248;47.374;8.486;2022-11-15T03:53:51;3.37;;;2.80;;
10403;SDS011;5248;47.374;8.486;2022-11-15T03:56:20;3.00;;;2.47;;
10403;SDS011;5248;47.374;8.486;2022-11-15T03:58:47;4.23;;;3.10;;
10403;SDS011;5248;47.374;8.486;2022-11-15T04:01:16;2.70;;;2.60;;
10403;SDS011;5248;47.374;8.486;2022-11-15T04:03:43;3.43;;;3.17;;
10403;SDS011;5248;47.374;8.486;2022-11-15T04:06:11;5.77;;;2.90;;
10403;SDS011;5248;47.374;8.486;2022-11-15T04:08:39;2.90;;;2.70;;
10403;SDS011;5248;47.374;8.486;2022-11-15T04:11:06;3.47;;;3.20;;
10403;SDS011;5248;47.374;8.486;2022-11-15T04:13:34;3.60;;;3.30;;
10403;SDS011;5248;47.374;8.486;2022-11-15T04:16:00;2.63;;;2.43;;
10403;SDS011;5248;47.374;8.486;2022-11-15T04:18:27;2.70;;;2.50;;
10403;SDS011;5248;47.374;8.486;2022-11-15T04:20:55;5.90;;;3.37;;
10403;SDS011;5248;47.374;8.486;2022-11-15T04:23:40;2.73;;;2.63;;
10403;SDS011;5248;47.374;8.486;2022-11-15T04:26:28;3.20;;;3.00;;
10403;SDS011;5248;47.374;8.486;2022-11-15T04:28:55;4.30;;;3.27;;
10403;SDS011;5248;47.374;8.486;2022-11-15T04:31:41;3.27;;;3.03;;
10403;SDS011;5248;47.374;8.486;2022-11-15T04:34:10;3.70;;;2.83;;
10403;SDS011;5248;47.374;8.486;2022-11-15T04:36:38;3.50;;;2.83;;
10403;SDS011;5248;47.374;8.486;2022-11-15T04:39:26;2.90;;;2.70;;
10403;SDS011;5248;47.374;8.486;2022-11-15T04:41:52;2.90;;;2.57;;
10403;SDS011;5248;47.374;8.486;2022-11-15T04:44:19;3.07;;;2.60;;
10403;SDS011;5248;47.374;8.486;2022-11-15T04:46:46;2.53;;;2.13;;
10403;SDS011;5248;47.374;8.486;2022-11-15T04:49:13;2.50;;;2.30;;
10403;SDS011;5248;47.374;8.486;2022-11-15T04:51:40;1.70;;;1.60;;
10403;SDS011;5248;47.374;8.486;2022-11-15T04:54:06;3.00;;;2.10;;
10403;SDS011;5248;47.374;8.486;2022-11-15T04:56:35;2.33;;;2.23;;
10403;SDS011;5248;47.374;8.486;2022-11-15T04:59:01;3.53;;;2.20;;
10403;SDS011;5248;47.374;8.486;2022-11-15T05:01:28;2.73;;;2.13;;
10403;SDS011;5248;47.374;8.486;2022-11-15T05:03:55;3.40;;;2.30;;
10403;SDS011;5248;47.374;8.486;2022-11-15T05:06:39;2.30;;;2.20;;
10403;SDS011;5248;47.374;8.486;2022-11-15T05:09:05;3.60;;;2.10;;
10403;SDS011;5248;47.374;8.486;2022-11-15T05:11:34;3.63;;;2.57;;
10403;SDS011;5248;47.374;8.486;2022-11-15T05:14:01;3.20;;;2.60;;
10403;SDS011;5248;47.374;8.486;2022-11-15T05:16:28;3.23;;;3.03;;
10403;SDS011;5248;47.374;8.486;2022-11-15T05:18:56;5.43;;;3.00;;
10403;SDS011;5248;47.374;8.486;2022-11-15T05:21:24;3.93;;;3.10;;
10403;SDS011;5248;47.374;8.486;2022-11-15T05:23:51;3.40;;;3.10;;
10403;SDS011;5248;47.374;8.486;2022-11-15T05:26:18;3.50;;;3.20;;
10403;SDS011;5248;47.374;8.486;2022-11-15T05:28:51;3.83;;;3.53;;
10403;SDS011;5248;47.374;8.486;2022-11-15T05:31:19;3.80;;;3.50;;
10403;SDS011;5248;47.374;8.486;2022-11-15T05:33:46;3.60;;;3.37;;
10403;SDS011;5248;47.374;8.486;2022-11-15T05:36:14;4.07;;;3.73;;
10403;SDS011;5248;47.374;8.486;2022-11-15T05:38:44;3.60;;;3.30;;
10403;SDS011;5248;47.374;8.486;2022-11-15T05:41:12;3.93;;;3.40;;
10403;SDS011;5248;47.374;8.486;2022-11-15T05:43:40;3.33;;;3.03;;
10403;SDS011;5248;47.374;8.486;2022-11-15T05:46:12;3.33;;;3.03;;
10403;SDS011;5248;47.374;8.486;2022-11-15T05:48:39;4.13;;;3.10;;
10403;SDS011;5248;47.374;8.486;2022-11-15T05:51:08;3.67;;;3.03;;
10403;SDS011;5248;47.374;8.486;2022-11-15T05:53:36;4.90;;;3.30;;
10403;SDS011;5248;47.374;8.486;2022-11-15T05:56:06;3.77;;;2.90;;
10403;SDS011;5248;47.374;8.486;2022-11-15T05:58:33;3.33;;;2.80;;
10403;SDS011;5248;47.374;8.486;2022-11-15T06:01:01;4.77;;;3.40;;
10403;SDS011;5248;47.374;8.486;2022-11-15T06:03:29;4.70;;;3.33;;
10403;SDS011;5248;47.374;8.486;2022-11-15T06:05:56;4.47;;;3.03;;
10403;SDS011;5248;47.374;8.486;2022-11-15T06:08:24;3.80;;;3.30;;
10403;SDS011;5248;47.374;8.486;2022-11-15T06:10:51;4.10;;;3.40;;
10403;SDS011;5248;47.374;8.486;2022-11-15T06:13:18;3.33;;;3.07;;
10403;SDS011;5248;47.374;8.486;2022-11-15T06:15:45;3.50;;;3.23;;
10403;SDS011;5248;47.374;8.486;2022-11-15T06:18:12;3.80;;;3.40;;
10403;SDS011;5248;47.374;8.486;2022-11-15T06:20:40;3.13;;;2.93;;
10403;SDS011;5248;47.374;8.486;2022-11-15T06:23:09;4.17;;;3.10;;
10403;SDS011;5248;47.374;8.486;2022-11-15T06:25:36;4.47;;;2.93;;
10403;SDS011;5248;47.374;8.486;2022-11-15T06:28:03;6.00;;;3.13;;
10403;SDS011;5248;47.374;8.486;2022-11-15T06:30:30;4.20;;;3.40;;
10403;SDS011;5248;47.374;8.486;2022-11-15T06:33:00;3.97;;;3.57;;
10403;SDS011;5248;47.374;8.486;2022-11-15T06:35:28;3.60;;;3.40;;
10403;SDS011;5248;47.374;8.486;2022-11-15T06:38:03;3.63;;;3.30;;
10403;SDS011;5248;47.374;8.486;2022-11-15T06:40:33;4.83;;;3.23;;
10403;SDS011;5248;47.374;8.486;2022-11-15T06:43:01;2.97;;;2.77;;
10403;SDS011;5248;47.374;8.486;2022-11-15T06:45:28;3.93;;;3.10;;
10403;SDS011;5248;47.374;8.486;2022-11-15T06:47:54;4.07;;;2.90;;
10403;SDS011;5248;47.374;8.486;2022-11-15T06:50:23;5.10;;;3.20;;
10403;SDS011;5248;47.374;8.486;2022-11-15T06:52:50;3.33;;;2.63;;
10403;SDS011;5248;47.374;8.486;2022-11-15T06:55:19;3.10;;;2.90;;
10403;SDS011;5248;47.374;8.486;2022-11-15T06:57:47;3.20;;;2.90;;
10403;SDS011;5248;47.374;8.486;2022-11-15T07:00:15;3.43;;;3.00;;
10403;SDS011;5248;47.374;8.486;2022-11-15T07:02:45;3.53;;;3.27;;
10403;SDS011;5248;47.374;8.486;2022-11-15T07:05:12;6.67;;;4.40;;
10403;SDS011;5248;47.374;8.486;2022-11-15T07:07:39;3.80;;;3.50;;
10403;SDS011;5248;47.374;8.486;2022-11-15T07:10:07;3.93;;;3.63;;
10403;SDS011;5248;47.374;8.486;2022-11-15T07:12:36;5.93;;;3.40;;
10403;SDS011;5248;47.374;8.486;2022-11-15T07:15:04;4.20;;;3.30;;
10403;SDS011;5248;47.374;8.486;2022-11-15T07:17:31;3.43;;;3.17;;
10403;SDS011;5248;47.374;8.486;2022-11-15T07:19:58;6.33;;;3.50;;
10403;SDS011;5248;47.374;8.486;2022-11-15T07:22:25;4.97;;;3.30;;
10403;SDS011;5248;47.374;8.486;2022-11-15T07:24:52;4.50;;;4.10;;
10403;SDS011;5248;47.374;8.486;2022-11-15T07:27:19;6.67;;;4.80;;
10403;SDS011;5248;47.374;8.486;2022-11-15T07:29:47;7.27;;;4.67;;
10403;SDS011;5248;47.374;8.486;2022-11-15T07:32:14;5.13;;;4.50;;
10403;SDS011;5248;47.374;8.486;2022-11-15T07:34:40;5.30;;;4.00;;
10403;SDS011;5248;47.374;8.486;2022-11-15T07:37:07;5.53;;;4.20;;
10403;SDS011;5248;47.374;8.486;2022-11-15T07:39:34;6.70;;;5.33;;
10403;SDS011;5248;47.374;8.486;2022-11-15T07:42:00;6.10;;;5.40;;
10403;SDS011;5248;47.374;8.486;2022-11-15T07:44:46;5.73;;;4.93;;
10403;SDS011;5248;47.374;8.486;2022-11-15T07:47:14;5.30;;;4.50;;
10403;SDS011;5248;47.374;8.486;2022-11-15T07:49:41;5.30;;;4.50;;
10403;SDS011;5248;47.374;8.486;2022-11-15T07:52:08;5.30;;;4.90;;
10403;SDS011;5248;47.374;8.486;2022-11-15T07:54:34;9.93;;;4.80;;
10403;SDS011;5248;47.374;8.486;2022-11-15T07:57:01;5.40;;;4.90;;
10403;SDS011;5248;47.374;8.486;2022-11-15T07:59:27;6.40;;;4.20;;
10403;SDS011;5248;47.374;8.486;2022-11-15T08:01:55;5.20;;;4.63;;
10403;SDS011;5248;47.374;8.486;2022-11-15T08:04:22;5.80;;;4.50;;
10403;SDS011;5248;47.374;8.486;2022-11-15T08:06:49;5.10;;;4.47;;
10403;SDS011;5248;47.374;8.486;2022-11-15T08:09:16;9.23;;;4.60;;
10403;SDS011;5248;47.374;8.486;2022-11-15T08:11:43;11.90;;;5.23;;
10403;SDS011;5248;47.374;8.486;2022-11-15T08:14:10;6.00;;;4.20;;
10403;SDS011;5248;47.374;8.486;2022-11-15T08:16:39;7.83;;;4.73;;
10403;SDS011;5248;47.374;8.486;2022-11-15T08:19:07;9.87;;;4.90;;
10403;SDS011;5248;47.374;8.486;2022-11-15T08:21:34;4.80;;;4.10;;
10403;SDS011;5248;47.374;8.486;2022-11-15T08:24:02;6.63;;;4.73;;
10403;SDS011;5248;47.374;8.486;2022-11-15T08:26:32;5.23;;;4.73;;
10403;SDS011;5248;47.374;8.486;2022-11-15T08:28:59;5.07;;;4.67;;
10403;SDS011;5248;47.374;8.486;2022-11-15T08:31:25;6.30;;;5.07;;
10403;SDS011;5248;47.374;8.486;2022-11-15T08:33:53;5.50;;;4.77;;
10403;SDS011;5248;47.374;8.486;2022-11-15T08:36:22;7.57;;;5.40;;
10403;SDS011;5248;47.374;8.486;2022-11-15T08:38:49;7.17;;;5.00;;
10403;SDS011;5248;47.374;8.486;2022-11-15T08:41:16;5.50;;;4.87;;
10403;SDS011;5248;47.374;8.486;2022-11-15T08:43:48;5.30;;;4.80;;
10403;SDS011;5248;47.374;8.486;2022-11-15T08:46:15;5.30;;;4.77;;
10403;SDS011;5248;47.374;8.486;2022-11-15T08:48:44;4.50;;;4.10;;
10403;SDS011;5248;47.374;8.486;2022-11-15T08:51:11;5.10;;;4.60;;
10403;SDS011;5248;47.374;8.486;2022-11-15T08:53:39;4.73;;;4.33;;
10403;SDS011;5248;47.374;8.486;2022-11-15T08:56:06;7.77;;;5.00;;
10403;SDS011;5248;47.374;8.486;2022-11-15T08:58:33;5.73;;;5.10;;
10403;SDS011;5248;47.374;8.486;2022-11-15T09:01:00;5.50;;;5.00;;
10403;SDS011;5248;47.374;8.486;2022-11-15T09:03:27;5.70;;;5.20;;
10403;SDS011;5248;47.374;8.486;2022-11-15T09:05:54;5.80;;;5.30;;
10403;SDS011;5248;47.374;8.486;2022-11-15T09:08:22;4.83;;;4.43;;
10403;SDS011;5248;47.374;8.486;2022-11-15T09:10:50;7.47;;;5.50;;
10403;SDS011;5248;47.374;8.486;2022-11-15T09:13:17;6.43;;;4.90;;
10403;SDS011;5248;47.374;8.486;2022-11-15T09:15:43;6.03;;;5.40;;
10403;SDS011;5248;47.374;8.486;2022-11-15T09:18:10;5.70;;;5.20;;
10403;SDS011;5248;47.374;8.486;2022-11-15T09:20:37;5.63;;;5.07;;
10403;SDS011;5248;47.374;8.486;2022-11-15T09:23:04;5.40;;;4.80;;
10403;SDS011;5248;47.374;8.486;2022-11-15T09:25:31;5.50;;;5.00;;
10403;SDS011;5248;47.374;8.486;2022-11-15T09:27:59;5.70;;;5.03;;
10403;SDS011;5248;47.374;8.486;2022-11-15T09:30:26;5.70;;;5.07;;
10403;SDS011;5248;47.374;8.486;2022-11-15T09:32:53;5.60;;;5.10;;
10403;SDS011;5248;47.374;8.486;2022-11-15T09:35:19;5.70;;;4.73;;
10403;SDS011;5248;47.374;8.486;2022-11-15T09:37:46;5.87;;;5.33;;
10403;SDS011;5248;47.374;8.486;2022-11-15T09:40:13;6.10;;;5.30;;
10403;SDS011;5248;47.374;8.486;2022-11-15T09:42:47;6.23;;;5.43;;
10403;SDS011;5248;47.374;8.486;2022-11-15T09:45:26;6.13;;;4.97;;
10403;SDS011;5248;47.374;8.486;2022-11-15T09:48:05;10.23;;;5.03;;
10403;SDS011;5248;47.374;8.486;2022-11-15T09:50:44;7.30;;;5.63;;
10403;SDS011;5248;47.374;8.486;2022-11-15T09:53:17;8.83;;;5.77;;
10403;SDS011;5248;47.374;8.486;2022-11-15T09:55:51;5.57;;;5.07;;
10403;SDS011;5248;47.374;8.486;2022-11-15T09:58:25;8.43;;;5.30;;
10403;SDS011;5248;47.374;8.486;2022-11-15T10:00:56;6.30;;;5.70;;
10403;SDS011;5248;47.374;8.486;2022-11-15T10:03:26;6.90;;;5.90;;
10403;SDS011;5248;47.374;8.486;2022-11-15T10:05:57;6.10;;;5.50;;
10403;SDS011;5248;47.374;8.486;2022-11-15T10:08:31;7.17;;;5.80;;
10403;SDS011;5248;47.374;8.486;2022-11-15T10:11:05;8.50;;;6.20;;
10403;SDS011;5248;47.374;8.486;2022-11-15T10:13:35;6.17;;;5.60;;
10403;SDS011;5248;47.374;8.486;2022-11-15T10:16:21;6.23;;;5.67;;
10403;SDS011;5248;47.374;8.486;2022-11-15T10:19:04;8.00;;;6.00;;
10403;SDS011;5248;47.374;8.486;2022-11-15T10:21:37;8.63;;;6.17;;
10403;SDS011;5248;47.374;8.486;2022-11-15T10:24:10;8.97;;;6.30;;
10403;SDS011;5248;47.374;8.486;2022-11-15T10:26:37;8.20;;;5.77;;
10403;SDS011;5248;47.374;8.486;2022-11-15T10:29:04;6.43;;;5.87;;
10403;SDS011;5248;47.374;8.486;2022-11-15T10:31:32;7.43;;;5.87;;
10403;SDS011;5248;47.374;8.486;2022-11-15T10:36:44;6.33;;;5.53;;
10403;SDS011;5248;47.374;8.486;2022-11-15T10:39:11;6.80;;;6.10;;
10403;SDS011;5248;47.374;8.486;2022-11-15T10:41:38;8.47;;;6.03;;
10403;SDS011;5248;47.374;8.486;2022-11-15T10:49:56;9.20;;;6.93;;
10403;SDS011;5248;47.374;8.486;2022-11-15T10:52:25;6.73;;;6.13;;
10403;SDS011;5248;47.374;8.486;2022-11-15T10:54:53;7.37;;;6.57;;
10403;SDS011;5248;47.374;8.486;2022-11-15T10:57:22;11.70;;;6.57;;
10403;SDS011;5248;47.374;8.486;2022-11-15T10:59:52;8.07;;;6.63;;
10403;SDS011;5248;47.374;8.486;2022-11-15T11:02:28;9.60;;;6.43;;
10403;SDS011;5248;47.374;8.486;2022-11-15T11:04:58;7.43;;;6.57;;
10403;SDS011;5248;47.374;8.486;2022-11-15T11:07:27;10.37;;;6.67;;
10403;SDS011;5248;47.374;8.486;2022-11-15T11:09:58;6.97;;;6.23;;
10403;SDS011;5248;47.374;8.486;2022-11-15T11:12:29;6.90;;;6.27;;
10403;SDS011;5248;47.374;8.486;2022-11-15T11:14:58;8.20;;;6.50;;
10403;SDS011;5248;47.374;8.486;2022-11-15T11:17:31;7.33;;;6.37;;
10403;SDS011;5248;47.374;8.486;2022-11-15T11:20:02;10.23;;;6.33;;
10403;SDS011;5248;47.374;8.486;2022-11-15T11:22:36;7.57;;;6.43;;
10403;SDS011;5248;47.374;8.486;2022-11-15T11:25:22;8.03;;;7.10;;
10403;SDS011;5248;47.374;8.486;2022-11-15T11:27:57;8.07;;;6.77;;
10403;SDS011;5248;47.374;8.486;2022-11-15T11:30:45;7.40;;;6.70;;
10403;SDS011;5248;47.374;8.486;2022-11-15T11:33:20;10.83;;;7.03;;
10403;SDS011;5248;47.374;8.486;2022-11-15T11:35:50;8.57;;;6.67;;
10403;SDS011;5248;47.374;8.486;2022-11-15T11:38:27;9.73;;;7.50;;
10403;SDS011;5248;47.374;8.486;2022-11-15T11:41:04;10.23;;;7.10;;
10403;SDS011;5248;47.374;8.486;2022-11-15T11:43:36;8.33;;;6.83;;
10403;SDS011;5248;47.374;8.486;2022-11-15T11:46:12;8.80;;;6.83;;
10403;SDS011;5248;47.374;8.486;2022-11-15T11:48:46;9.80;;;6.07;;
10403;SDS011;5248;47.374;8.486;2022-11-15T11:51:18;7.50;;;6.23;;
10403;SDS011;5248;47.374;8.486;2022-11-15T11:53:49;6.13;;;5.53;;
10403;SDS011;5248;47.374;8.486;2022-11-15T11:56:23;6.53;;;5.70;;
10403;SDS011;5248;47.374;8.486;2022-11-15T11:58:53;6.10;;;5.10;;
10403;SDS011;5248;47.374;8.486;2022-11-15T12:01:23;6.13;;;5.43;;
10403;SDS011;5248;47.374;8.486;2022-11-15T12:03:52;7.03;;;5.03;;
10403;SDS011;5248;47.374;8.486;2022-11-15T12:06:26;10.37;;;7.80;;
10403;SDS011;5248;47.374;8.486;2022-11-15T12:08:58;7.10;;;5.10;;
10403;SDS011;5248;47.374;8.486;2022-11-15T12:11:28;5.37;;;4.67;;
10403;SDS011;5248;47.374;8.486;2022-11-15T12:13:57;5.67;;;4.53;;
10403;SDS011;5248;47.374;8.486;2022-11-15T12:16:26;4.93;;;4.43;;
10403;SDS011;5248;47.374;8.486;2022-11-15T12:18:58;7.17;;;4.80;;
10403;SDS011;5248;47.374;8.486;2022-11-15T12:21:29;5.50;;;5.03;;
10403;SDS011;5248;47.374;8.486;2022-11-15T12:24:02;5.50;;;5.00;;
10403;SDS011;5248;47.374;8.486;2022-11-15T12:26:32;5.57;;;5.07;;
10403;SDS011;5248;47.374;8.486;2022-11-15T12:29:03;8.50;;;5.00;;
10403;SDS011;5248;47.374;8.486;2022-11-15T12:31:34;5.73;;;4.67;;
10403;SDS011;5248;47.374;8.486;2022-11-15T12:34:13;6.47;;;4.67;;
10403;SDS011;5248;47.374;8.486;2022-11-15T12:36:42;8.10;;;4.63;;
10403;SDS011;5248;47.374;8.486;2022-11-15T12:39:10;5.60;;;4.83;;
10403;SDS011;5248;47.374;8.486;2022-11-15T12:41:37;7.00;;;5.27;;
10403;SDS011;5248;47.374;8.486;2022-11-15T12:44:09;5.40;;;4.30;;
10403;SDS011;5248;47.374;8.486;2022-11-15T12:49:43;5.40;;;4.90;;
10403;SDS011;5248;47.374;8.486;2022-11-15T12:52:12;6.13;;;4.40;;
10403;SDS011;5248;47.374;8.486;2022-11-15T12:54:52;5.50;;;5.00;;
10403;SDS011;5248;47.374;8.486;2022-11-15T13:03:21;3.63;;;3.33;;
10403;SDS011;5248;47.374;8.486;2022-11-15T13:06:01;4.80;;;3.10;;
10403;SDS011;5248;47.374;8.486;2022-11-15T13:08:49;4.13;;;2.80;;
10403;SDS011;5248;47.374;8.486;2022-11-15T13:17:25;3.50;;;3.20;;
10403;SDS011;5248;47.374;8.486;2022-11-15T13:20:00;3.70;;;3.30;;
10403;SDS011;5248;47.374;8.486;2022-11-15T13:22:39;4.10;;;3.10;;
10403;SDS011;5248;47.374;8.486;2022-11-15T13:25:32;4.73;;;3.17;;
10403;SDS011;5248;47.374;8.486;2022-11-15T13:28:18;3.90;;;3.23;;
10403;SDS011;5248;47.374;8.486;2022-11-15T13:30:49;4.73;;;3.20;;
10403;SDS011;5248;47.374;8.486;2022-11-15T13:33:17;4.10;;;3.70;;
10403;SDS011;5248;47.374;8.486;2022-11-15T13:35:47;3.57;;;3.27;;
10403;SDS011;5248;47.374;8.486;2022-11-15T13:38:19;5.43;;;3.63;;
10403;SDS011;5248;47.374;8.486;2022-11-15T13:40:52;4.10;;;3.77;;
10403;SDS011;5248;47.374;8.486;2022-11-15T13:43:23;7.20;;;4.00;;
10403;SDS011;5248;47.374;8.486;2022-11-15T13:46:03;6.70;;;4.03;;
10403;SDS011;5248;47.374;8.486;2022-11-15T13:48:34;4.63;;;3.60;;
10403;SDS011;5248;47.374;8.486;2022-11-15T13:51:01;4.70;;;3.93;;
10403;SDS011;5248;47.374;8.486;2022-11-15T13:53:30;3.57;;;3.27;;
10403;SDS011;5248;47.374;8.486;2022-11-15T13:55:57;3.33;;;3.03;;
10403;SDS011;5248;47.374;8.486;2022-11-15T13:58:24;3.73;;;3.30;;
10403;SDS011;5248;47.374;8.486;2022-11-15T14:00:58;4.17;;;3.03;;
10403;SDS011;5248;47.374;8.486;2022-11-15T14:03:26;3.30;;;3.00;;
10403;SDS011;5248;47.374;8.486;2022-11-15T14:06:06;5.27;;;3.30;;
10403;SDS011;5248;47.374;8.486;2022-11-15T14:08:38;3.70;;;2.93;;
10403;SDS011;5248;47.374;8.486;2022-11-15T14:11:10;4.23;;;3.13;;
10403;SDS011;5248;47.374;8.486;2022-11-15T14:13:40;2.53;;;2.33;;
10403;SDS011;5248;47.374;8.486;2022-11-15T14:16:14;3.20;;;2.87;;
10403;SDS011;5248;47.374;8.486;2022-11-15T14:18:44;3.40;;;3.10;;
10403;SDS011;5248;47.374;8.486;2022-11-15T14:21:12;4.33;;;2.87;;
10403;SDS011;5248;47.374;8.486;2022-11-15T14:23:40;3.27;;;2.97;;
10403;SDS011;5248;47.374;8.486;2022-11-15T14:26:10;3.83;;;3.20;;
10403;SDS011;5248;47.374;8.486;2022-11-15T14:28:51;3.70;;;2.97;;
10403;SDS011;5248;47.374;8.486;2022-11-15T14:31:18;6.60;;;3.17;;
10403;SDS011;5248;47.374;8.486;2022-11-15T14:33:46;3.27;;;3.00;;
10403;SDS011;5248;47.374;8.486;2022-11-15T14:36:14;6.13;;;3.13;;
10403;SDS011;5248;47.374;8.486;2022-11-15T14:38:43;3.83;;;3.10;;
10403;SDS011;5248;47.374;8.486;2022-11-15T14:41:17;4.83;;;3.17;;
10403;SDS011;5248;47.374;8.486;2022-11-15T14:43:45;5.37;;;3.20;;
10403;SDS011;5248;47.374;8.486;2022-11-15T14:46:12;3.43;;;3.10;;
10403;SDS011;5248;47.374;8.486;2022-11-15T14:48:38;5.60;;;3.23;;
10403;SDS011;5248;47.374;8.486;2022-11-15T14:51:09;4.93;;;3.40;;
10403;SDS011;5248;47.374;8.486;2022-11-15T14:53:37;3.40;;;3.03;;
10403;SDS011;5248;47.374;8.486;2022-11-15T14:56:05;5.67;;;3.53;;
10403;SDS011;5248;47.374;8.486;2022-11-15T14:58:32;4.33;;;3.10;;
10403;SDS011;5248;47.374;8.486;2022-11-15T15:00:59;5.30;;;3.30;;
10403;SDS011;5248;47.374;8.486;2022-11-15T15:03:26;3.37;;;3.07;;
10403;SDS011;5248;47.374;8.486;2022-11-15T15:05:53;4.47;;;3.17;;
10403;SDS011;5248;47.374;8.486;2022-11-15T15:08:21;4.23;;;3.13;;
10403;SDS011;5248;47.374;8.486;2022-11-15T15:10:47;4.07;;;3.50;;
10403;SDS011;5248;47.374;8.486;2022-11-15T15:13:16;3.90;;;3.20;;
10403;SDS011;5248;47.374;8.486;2022-11-15T15:15:44;3.63;;;3.10;;
10403;SDS011;5248;47.374;8.486;2022-11-15T15:18:11;5.07;;;3.27;;
10403;SDS011;5248;47.374;8.486;2022-11-15T15:20:38;4.87;;;3.50;;
10403;SDS011;5248;47.374;8.486;2022-11-15T15:23:07;4.87;;;3.30;;
10403;SDS011;5248;47.374;8.486;2022-11-15T15:25:40;3.87;;;3.47;;
10403;SDS011;5248;47.374;8.486;2022-11-15T15:28:08;4.20;;;3.80;;
10403;SDS011;5248;47.374;8.486;2022-11-15T15:30:36;3.83;;;3.40;;
10403;SDS011;5248;47.374;8.486;2022-11-15T15:33:03;4.27;;;3.23;;
10403;SDS011;5248;47.374;8.486;2022-11-15T15:35:30;3.87;;;3.33;;
10403;SDS011;5248;47.374;8.486;2022-11-15T15:38:00;4.57;;;3.53;;
10403;SDS011;5248;47.374;8.486;2022-11-15T15:40:28;3.53;;;3.23;;
10403;SDS011;5248;47.374;8.486;2022-11-15T15:42:56;7.17;;;3.87;;